Time;durP1;ratioP1;P1;durP2;ratioP2;P2;SDS_P1;SDS_P2;PMS_P1;PMS_P2;Temp;Humidity;BMP_temperature;BMP_pressure;BME280_temperature;BME280_humidity;BME280_pressure;Samples;Min_cycle;Max_cycle;Signal;HPM_P1;HPM_P2
2021/01/17 00:00:32;;;;;;;32.83;15.02;;;1.40;99.90;;;;;;3620997;39;20299;-73
2021/01/17 00:03:00;;;;;;;29.05;15.38;;;1.30;99.90;;;;;;3620803;39;20810;-72
2021/01/17 00:05:29;;;;;;;28.42;15.25;;;1.40;99.90;;;;;;3620360;39;20292;-72
2021/01/17 00:07:56;;;;;;;26.80;14.05;;;1.30;99.90;;;;;;3619784;39;20265;-72
2021/01/17 00:10:25;;;;;;;29.52;16.30;;;1.20;99.90;;;;;;3620049;39;20359;-72
2021/01/17 00:12:53;;;;;;;30.70;15.40;;;1.30;99.90;;;;;;3622085;39;20630;-72
2021/01/17 00:15:20;;;;;;;29.08;15.70;;;1.30;99.90;;;;;;3629056;39;20269;-73
2021/01/17 00:17:47;;;;;;;28.98;15.23;;;1.20;99.90;;;;;;3622419;39;20314;-73
2021/01/17 00:20:15;;;;;;;26.30;14.38;;;1.20;99.90;;;;;;3621746;39;20279;-73
2021/01/17 00:22:42;;;;;;;31.63;15.98;;;1.10;99.90;;;;;;3622327;39;20352;-72
2021/01/17 00:25:11;;;;;;;27.90;14.32;;;1.20;99.90;;;;;;3625472;39;20270;-72
2021/01/17 00:27:38;;;;;;;31.08;14.60;;;1.20;99.90;;;;;;3622887;39;20258;-72
2021/01/17 00:30:07;;;;;;;34.40;16.92;;;1.20;99.90;;;;;;3622350;39;20250;-72
2021/01/17 00:32:33;;;;;;;29.95;15.73;;;1.30;99.90;;;;;;3621972;39;20290;-72
2021/01/17 00:35:01;;;;;;;31.92;14.30;;;1.30;99.90;;;;;;3621758;39;20288;-73
2021/01/17 00:37:28;;;;;;;29.40;14.82;;;1.20;99.90;;;;;;3621897;39;20271;-73
2021/01/17 00:39:54;;;;;;;25.05;14.05;;;1.30;99.90;;;;;;3621983;39;20274;-73
2021/01/17 00:42:21;;;;;;;34.70;16.58;;;1.30;99.90;;;;;;3621735;39;20244;-73
2021/01/17 00:44:50;;;;;;;29.98;14.57;;;1.40;99.90;;;;;;3621373;39;20356;-73
2021/01/17 00:47:17;;;;;;;32.72;15.32;;;1.30;99.90;;;;;;3621248;39;21070;-73
2021/01/17 00:49:44;;;;;;;29.10;15.48;;;1.40;99.90;;;;;;3621770;39;20344;-73
2021/01/17 00:52:16;;;;;;;29.17;15.77;;;1.40;99.90;;;;;;3621501;39;20287;-73
2021/01/17 00:54:42;;;;;;;28.30;14.63;;;1.30;99.90;;;;;;3621283;39;20275;-73
2021/01/17 00:57:12;;;;;;;29.73;14.55;;;1.40;99.90;;;;;;3622989;39;20259;-73
2021/01/17 00:59:47;;;;;;;30.15;14.50;;;1.40;99.90;;;;;;3622025;39;20267;-72
2021/01/17 01:02:23;;;;;;;30.58;17.38;;;1.40;99.90;;;;;;3621406;39;20252;-72
2021/01/17 01:04:51;;;;;;;31.27;15.57;;;1.30;99.90;;;;;;3637466;32;20290;-72
2021/01/17 01:07:17;;;;;;;28.85;14.70;;;1.20;99.90;;;;;;3625531;39;20241;-73
2021/01/17 01:09:44;;;;;;;35.10;14.80;;;1.20;99.90;;;;;;3623119;39;20237;-73
2021/01/17 01:12:10;;;;;;;29.63;15.88;;;1.20;99.90;;;;;;3624242;39;20375;-73
2021/01/17 01:14:37;;;;;;;32.65;16.73;;;1.20;99.90;;;;;;3620978;39;20279;-72
2021/01/17 01:17:03;;;;;;;32.85;15.75;;;1.20;99.90;;;;;;3623707;39;20284;-72
2021/01/17 01:19:30;;;;;;;28.88;14.77;;;1.20;99.90;;;;;;3622314;39;20321;-72
2021/01/17 01:21:57;;;;;;;26.13;14.60;;;1.30;99.90;;;;;;3624460;32;20261;-73
2021/01/17 01:24:23;;;;;;;28.75;14.32;;;1.30;99.90;;;;;;3621447;39;20269;-73
2021/01/17 01:26:50;;;;;;;27.25;13.77;;;1.20;99.90;;;;;;3620874;39;20278;-73
2021/01/17 01:29:16;;;;;;;34.13;16.88;;;1.30;99.90;;;;;;3628518;39;20239;-73
2021/01/17 01:31:43;;;;;;;30.73;14.75;;;1.30;99.90;;;;;;3626876;39;20329;-73
2021/01/17 01:34:09;;;;;;;31.73;14.40;;;1.30;99.90;;;;;;3622858;39;20303;-72
2021/01/17 01:36:40;;;;;;;30.33;14.68;;;1.30;99.90;;;;;;3622030;39;20275;-72
2021/01/17 01:39:07;;;;;;;30.50;15.55;;;1.40;99.90;;;;;;3623523;39;20323;-72
2021/01/17 01:41:35;;;;;;;28.02;14.70;;;1.50;99.90;;;;;;3621042;39;20254;-72
2021/01/17 01:44:03;;;;;;;26.88;14.43;;;1.50;99.90;;;;;;3622594;39;20357;-71
2021/01/17 01:46:31;;;;;;;31.02;14.60;;;1.70;99.90;;;;;;3621374;39;20760;-72
2021/01/17 01:49:00;;;;;;;32.50;15.85;;;1.70;99.90;;;;;;3620737;39;20324;-72
2021/01/17 01:51:27;;;;;;;34.33;15.52;;;1.70;99.90;;;;;;3620969;39;20254;-72
2021/01/17 01:53:57;;;;;;;32.63;15.60;;;1.70;99.90;;;;;;3628115;39;20261;-72
2021/01/17 01:56:25;;;;;;;23.83;13.70;;;1.70;99.90;;;;;;3625322;39;20273;-72
2021/01/17 01:58:52;;;;;;;30.90;15.23;;;1.60;99.90;;;;;;3620735;39;20612;-72
2021/01/17 02:01:19;;;;;;;35.75;16.42;;;1.50;99.90;;;;;;3624140;39;20277;-72
2021/01/17 02:03:46;;;;;;;30.15;14.88;;;1.60;99.90;;;;;;3620920;39;20358;-72
2021/01/17 02:06:13;;;;;;;31.83;14.65;;;1.70;99.90;;;;;;3626987;39;20296;-72
2021/01/17 02:09:09;;;;;;;25.70;14.43;;;1.60;99.90;;;;;;3621208;39;20307;-72
2021/01/17 02:11:47;;;;;;;30.67;15.00;;;1.50;99.90;;;;;;3621015;39;20251;-72
2021/01/17 02:14:22;;;;;;;28.38;15.77;;;1.50;99.90;;;;;;3620666;39;20252;-72
2021/01/17 02:16:52;;;;;;;30.45;16.55;;;1.50;99.90;;;;;;3621702;39;20249;-72
2021/01/17 02:19:20;;;;;;;33.72;15.82;;;1.60;99.90;;;;;;3620686;39;20250;-72
2021/01/17 02:21:57;;;;;;;33.47;16.67;;;1.60;99.90;;;;;;3620574;39;20245;-72
2021/01/17 02:24:31;;;;;;;31.67;15.77;;;1.60;99.90;;;;;;3622120;39;20276;-72
2021/01/17 02:26:59;;;;;;;32.42;15.25;;;1.60;99.90;;;;;;3620860;39;20295;-72
2021/01/17 02:29:27;;;;;;;29.75;15.75;;;1.70;99.90;;;;;;3622526;39;20337;-72
2021/01/17 02:31:59;;;;;;;34.42;17.40;;;1.80;99.90;;;;;;3620735;39;20280;-72
2021/01/17 02:34:27;;;;;;;30.83;15.48;;;1.90;99.90;;;;;;3620439;39;20377;-72
2021/01/17 02:37:04;;;;;;;28.08;15.27;;;2.00;99.90;;;;;;3620705;39;20264;-72
2021/01/17 02:39:48;;;;;;;26.40;13.93;;;2.00;99.90;;;;;;3621074;39;20256;-72
2021/01/17 02:42:16;;;;;;;32.97;16.23;;;2.00;99.90;;;;;;3656514;31;20249;-72
2021/01/17 02:44:42;;;;;;;32.40;16.02;;;2.00;99.90;;;;;;3623351;39;20252;-72
2021/01/17 02:47:09;;;;;;;30.15;14.82;;;2.00;99.90;;;;;;3620898;39;20286;-72
2021/01/17 02:49:36;;;;;;;29.27;15.85;;;2.00;99.90;;;;;;3622402;39;20653;-72
2021/01/17 02:52:06;;;;;;;40.97;17.65;;;2.10;99.90;;;;;;3621323;39;20268;-72
2021/01/17 02:54:34;;;;;;;34.38;15.43;;;2.00;99.90;;;;;;3621636;39;20405;-72
2021/01/17 02:57:04;;;;;;;32.35;15.73;;;2.00;99.90;;;;;;3627400;39;20253;-72
2021/01/17 02:59:34;;;;;;;38.85;16.20;;;2.00;99.90;;;;;;3620482;39;20261;-72
2021/01/17 03:02:04;;;;;;;30.45;16.20;;;2.00;99.90;;;;;;3621853;39;20258;-72
2021/01/17 03:04:39;;;;;;;33.25;16.05;;;2.00;99.90;;;;;;3620825;39;20258;-72
2021/01/17 03:07:09;;;;;;;32.40;15.63;;;2.00;99.90;;;;;;3620435;39;20246;-72
2021/01/17 03:09:36;;;;;;;36.00;17.27;;;2.10;99.90;;;;;;3620023;39;20245;-72
2021/01/17 03:12:04;;;;;;;34.17;15.50;;;2.20;99.90;;;;;;3620552;39;20271;-72
2021/01/17 03:14:33;;;;;;;32.15;16.63;;;2.20;99.90;;;;;;3620131;39;20273;-72
2021/01/17 03:17:01;;;;;;;31.40;17.83;;;2.30;99.90;;;;;;3623250;39;20345;-72
2021/01/17 03:19:28;;;;;;;31.60;18.05;;;2.30;99.90;;;;;;3622662;39;20260;-72
2021/01/17 03:21:54;;;;;;;35.30;16.55;;;2.10;99.90;;;;;;3623047;39;20280;-72
2021/01/17 03:24:21;;;;;;;33.45;16.23;;;2.10;99.90;;;;;;3620876;39;20253;-72
2021/01/17 03:26:47;;;;;;;36.58;16.23;;;2.10;99.90;;;;;;3621130;39;20256;-72
2021/01/17 03:29:14;;;;;;;35.10;16.98;;;2.10;99.90;;;;;;3623011;39;20271;-72
2021/01/17 03:31:41;;;;;;;29.45;15.40;;;2.10;99.90;;;;;;3624667;39;20320;-72
2021/01/17 03:34:07;;;;;;;33.38;16.30;;;2.20;99.90;;;;;;3620974;39;20259;-72
2021/01/17 03:36:34;;;;;;;33.58;17.38;;;2.20;99.90;;;;;;3620536;39;20280;-72
2021/01/17 03:39:01;;;;;;;38.00;16.60;;;2.10;99.90;;;;;;3623292;39;20272;-72
2021/01/17 03:41:27;;;;;;;37.30;17.38;;;2.10;99.90;;;;;;3621001;39;20279;-72
2021/01/17 03:43:53;;;;;;;35.55;17.98;;;2.10;99.90;;;;;;3621592;39;20310;-72
2021/01/17 03:46:20;;;;;;;37.25;18.25;;;2.20;99.90;;;;;;3621152;39;20285;-72
2021/01/17 03:48:49;;;;;;;33.55;16.60;;;2.20;99.90;;;;;;3656866;31;21280;-72
2021/01/17 03:51:15;;;;;;;36.47;17.05;;;2.20;99.90;;;;;;3624103;39;20264;-72
2021/01/17 03:53:42;;;;;;;36.65;16.48;;;2.20;99.90;;;;;;3624852;39;20276;-72
2021/01/17 03:56:08;;;;;;;35.78;16.58;;;2.20;99.90;;;;;;3622081;39;20246;-72
2021/01/17 03:58:35;;;;;;;37.65;17.45;;;2.10;99.90;;;;;;3621996;39;20261;-72
2021/01/17 04:01:01;;;;;;;39.33;17.65;;;2.00;99.90;;;;;;3622379;39;20393;-72
2021/01/17 04:03:28;;;;;;;35.20;17.00;;;2.00;99.90;;;;;;3626159;39;20850;-72
2021/01/17 04:05:55;;;;;;;35.17;15.45;;;2.00;99.90;;;;;;3624314;39;20280;-72
2021/01/17 04:08:21;;;;;;;35.60;16.42;;;2.10;99.90;;;;;;3623735;39;20254;-72
2021/01/17 04:10:48;;;;;;;37.83;16.92;;;2.20;99.90;;;;;;3621945;39;20344;-72
2021/01/17 04:13:14;;;;;;;34.85;17.42;;;2.30;99.90;;;;;;3622358;39;20268;-72
2021/01/17 04:15:41;;;;;;;35.90;17.08;;;2.30;99.90;;;;;;3621843;39;20359;-72
2021/01/17 04:18:09;;;;;;;37.15;17.10;;;2.30;99.90;;;;;;3622448;39;20272;-72
2021/01/17 04:20:35;;;;;;;35.97;17.05;;;2.30;99.90;;;;;;3621672;39;20263;-72
2021/01/17 04:23:04;;;;;;;39.40;17.80;;;2.30;99.90;;;;;;3621524;39;20281;-72
2021/01/17 04:25:31;;;;;;;35.03;17.73;;;2.30;99.90;;;;;;3621445;39;20285;-72
2021/01/17 04:27:59;;;;;;;37.92;17.58;;;2.30;99.90;;;;;;3621426;39;20257;-72
2021/01/17 04:30:30;;;;;;;40.13;18.67;;;2.40;99.90;;;;;;3621622;39;20644;-72
2021/01/17 04:32:57;;;;;;;37.70;16.60;;;2.40;99.90;;;;;;3624697;39;20269;-72
2021/01/17 04:35:24;;;;;;;37.35;17.58;;;2.50;99.90;;;;;;3623753;39;20267;-72
2021/01/17 04:37:50;;;;;;;39.20;16.35;;;2.60;99.90;;;;;;3621895;39;20276;-72
2021/01/17 04:40:18;;;;;;;38.13;17.77;;;2.60;99.90;;;;;;3621570;39;20254;-72
2021/01/17 04:42:49;;;;;;;36.40;16.60;;;2.60;99.90;;;;;;3624492;39;20641;-72
2021/01/17 04:45:17;;;;;;;36.28;16.20;;;2.70;99.90;;;;;;3621242;39;20252;-72
2021/01/17 04:47:46;;;;;;;44.65;18.30;;;2.70;99.90;;;;;;3621352;39;20282;-72
2021/01/17 04:50:16;;;;;;;36.95;18.38;;;2.70;99.90;;;;;;3624879;39;20246;-72
2021/01/17 04:52:58;;;;;;;40.67;19.08;;;2.60;99.90;;;;;;3621549;39;20645;-72
2021/01/17 04:55:26;;;;;;;34.53;16.20;;;2.60;99.90;;;;;;3621502;39;20238;-72
2021/01/17 04:58:04;;;;;;;40.28;17.88;;;2.50;99.90;;;;;;3626054;39;20247;-72
2021/01/17 05:00:33;;;;;;;45.42;18.17;;;2.50;99.90;;;;;;3620820;39;20257;-72
2021/01/17 05:03:18;;;;;;;34.92;17.50;;;2.40;99.90;;;;;;3624291;39;20264;-72
2021/01/17 05:05:52;;;;;;;37.88;17.25;;;2.20;99.90;;;;;;3621689;39;20245;-72
2021/01/17 05:08:40;;;;;;;43.05;18.90;;;2.20;99.90;;;;;;3621615;39;20661;-73
2021/01/17 05:11:08;;;;;;;40.78;16.42;;;2.20;99.90;;;;;;3674887;31;20296;-72
2021/01/17 05:13:37;;;;;;;38.88;19.55;;;2.20;99.90;;;;;;3621373;39;20774;-72
2021/01/17 05:16:06;;;;;;;38.03;19.60;;;2.10;99.90;;;;;;3621438;39;20280;-72
2021/01/17 05:18:33;;;;;;;37.80;18.50;;;2.10;99.90;;;;;;3620913;39;20717;-72
2021/01/17 05:21:01;;;;;;;38.47;17.40;;;2.10;99.90;;;;;;3622306;39;20269;-72
2021/01/17 05:23:33;;;;;;;37.22;16.13;;;2.10;99.90;;;;;;3621574;39;20268;-72
2021/01/17 05:26:01;;;;;;;45.45;18.77;;;2.10;99.90;;;;;;3621270;39;20254;-72
2021/01/17 05:28:31;;;;;;;42.13;19.70;;;2.10;99.90;;;;;;3623291;39;21135;-72
2021/01/17 05:30:58;;;;;;;38.50;17.98;;;2.10;99.90;;;;;;3624266;39;20356;-72
2021/01/17 05:33:28;;;;;;;43.35;19.77;;;2.00;99.90;;;;;;3624275;39;20283;-72
2021/01/17 05:35:55;;;;;;;36.90;17.70;;;2.00;99.90;;;;;;3623122;39;20271;-72
2021/01/17 05:38:21;;;;;;;42.10;18.98;;;2.10;99.90;;;;;;3623087;39;20237;-72
2021/01/17 05:40:48;;;;;;;37.75;17.35;;;2.10;99.90;;;;;;3621249;39;20280;-72
2021/01/17 05:43:14;;;;;;;34.97;16.92;;;2.20;99.90;;;;;;3621018;39;20317;-72
2021/01/17 05:45:42;;;;;;;40.97;20.90;;;2.20;99.90;;;;;;3624305;39;20253;-72
2021/01/17 05:48:10;;;;;;;40.58;18.63;;;2.20;99.90;;;;;;3621176;39;20876;-72
2021/01/17 05:50:38;;;;;;;38.22;18.52;;;2.10;99.90;;;;;;3621574;39;20246;-72
2021/01/17 05:53:06;;;;;;;42.35;19.20;;;2.10;99.90;;;;;;3625000;39;20239;-72
2021/01/17 05:55:34;;;;;;;43.55;18.17;;;2.20;99.90;;;;;;3620798;39;20272;-72
2021/01/17 05:58:20;;;;;;;47.83;18.55;;;2.30;99.90;;;;;;3624227;39;20252;-72
2021/01/17 06:00:47;;;;;;;40.85;17.48;;;2.30;99.90;;;;;;3621232;39;20315;-72
2021/01/17 06:03:19;;;;;;;37.47;19.00;;;2.40;99.90;;;;;;3621679;39;20259;-72
2021/01/17 06:05:49;;;;;;;40.30;19.00;;;2.40;99.90;;;;;;3620640;39;20272;-72
2021/01/17 06:08:19;;;;;;;35.08;17.45;;;2.30;99.90;;;;;;3620867;39;20254;-72
2021/01/17 06:10:47;;;;;;;44.28;19.48;;;2.20;99.90;;;;;;3627742;31;20236;-72
2021/01/17 06:13:21;;;;;;;39.03;17.95;;;2.20;99.90;;;;;;3622852;39;20286;-72
2021/01/17 06:15:48;;;;;;;42.50;17.13;;;2.30;99.90;;;;;;3623987;39;20254;-72
2021/01/17 06:18:19;;;;;;;43.33;20.02;;;2.30;99.90;;;;;;3622886;39;20284;-72
2021/01/17 06:20:46;;;;;;;43.20;19.30;;;2.40;99.90;;;;;;3620412;39;20244;-72
2021/01/17 06:23:20;;;;;;;42.55;18.08;;;2.50;99.90;;;;;;3621998;39;20257;-72
2021/01/17 06:26:00;;;;;;;40.53;18.73;;;2.50;99.90;;;;;;3620563;39;20265;-72
2021/01/17 06:28:38;;;;;;;42.88;18.02;;;2.40;99.90;;;;;;3620988;39;20302;-73
2021/01/17 06:31:07;;;;;;;45.83;18.20;;;2.40;99.90;;;;;;3620432;39;20255;-72
2021/01/17 06:33:34;;;;;;;38.38;16.98;;;2.50;99.90;;;;;;3620878;39;20345;-72
2021/01/17 06:36:12;;;;;;;47.53;19.92;;;2.50;99.90;;;;;;3620361;39;20282;-72
2021/01/17 06:38:38;;;;;;;41.72;18.20;;;2.50;99.90;;;;;;3620549;39;20261;-72
2021/01/17 06:41:05;;;;;;;41.65;20.33;;;2.40;99.90;;;;;;3623666;39;20341;-72
2021/01/17 06:43:32;;;;;;;38.88;18.60;;;2.40;99.90;;;;;;3620605;39;20254;-72
2021/01/17 06:45:59;;;;;;;41.80;17.85;;;2.40;99.90;;;;;;3620257;39;22674;-72
2021/01/17 06:48:27;;;;;;;47.83;21.70;;;2.40;99.90;;;;;;3620570;39;20323;-73
2021/01/17 06:50:54;;;;;;;41.47;17.55;;;2.50;99.90;;;;;;3623884;39;20267;-73
2021/01/17 06:53:22;;;;;;;45.67;20.58;;;2.40;99.90;;;;;;3624164;39;20260;-73
2021/01/17 06:55:49;;;;;;;46.97;19.77;;;2.40;99.90;;;;;;3620306;39;20276;-73
2021/01/17 06:58:17;;;;;;;41.45;18.42;;;2.40;99.90;;;;;;3620441;39;20341;-73
2021/01/17 07:00:46;;;;;;;48.85;20.48;;;2.30;99.90;;;;;;3620624;39;20279;-72
2021/01/17 07:03:16;;;;;;;45.83;20.92;;;2.30;99.90;;;;;;3620182;39;20292;-72
2021/01/17 07:06:01;;;;;;;51.30;20.77;;;2.30;99.90;;;;;;3619910;39;20271;-72
2021/01/17 07:08:50;;;;;;;47.20;21.13;;;2.30;99.90;;;;;;3623055;39;20282;-72
2021/01/17 07:11:32;;;;;;;46.83;20.95;;;2.30;99.90;;;;;;3619755;39;20261;-72
2021/01/17 07:14:07;;;;;;;49.63;21.23;;;2.30;99.90;;;;;;3620586;39;20289;-72
2021/01/17 07:16:35;;;;;;;41.70;19.15;;;2.20;99.90;;;;;;3621855;39;20297;-72
2021/01/17 07:19:06;;;;;;;51.45;20.35;;;2.30;99.90;;;;;;3620284;39;20265;-72
2021/01/17 07:21:40;;;;;;;54.17;21.98;;;2.20;99.90;;;;;;3623056;39;20247;-72
2021/01/17 07:24:08;;;;;;;45.00;19.55;;;2.20;99.90;;;;;;3624124;39;20232;-72
2021/01/17 07:26:51;;;;;;;56.22;21.83;;;2.20;99.90;;;;;;3624892;39;20284;-72
2021/01/17 07:29:19;;;;;;;51.03;23.00;;;2.10;99.90;;;;;;3621242;39;20161;-72
2021/01/17 07:31:49;;;;;;;62.90;22.75;;;2.20;99.90;;;;;;3624449;39;20413;-72
2021/01/17 07:34:16;;;;;;;53.75;19.90;;;2.20;99.90;;;;;;3622700;39;20257;-73
2021/01/17 07:36:48;;;;;;;50.42;21.77;;;2.30;99.90;;;;;;3622204;39;20278;-72
2021/01/17 07:39:18;;;;;;;49.45;21.17;;;2.30;99.90;;;;;;3622147;39;20273;-73
2021/01/17 07:41:50;;;;;;;51.83;22.05;;;2.30;99.90;;;;;;3622739;39;20290;-73
2021/01/17 07:44:19;;;;;;;54.28;22.90;;;2.40;99.90;;;;;;3622940;39;20655;-73
2021/01/17 07:46:45;;;;;;;46.17;20.15;;;2.40;99.90;;;;;;3621848;39;20336;-73
2021/01/17 07:49:14;;;;;;;53.28;21.92;;;2.40;99.90;;;;;;3622789;39;20816;-73
2021/01/17 07:51:42;;;;;;;47.65;21.10;;;2.50;99.90;;;;;;3622084;39;20310;-75
2021/01/17 07:54:20;;;;;;;46.03;20.30;;;2.50;99.90;;;;;;3622086;39;20336;-73
2021/01/17 07:56:47;;;;;;;60.25;21.35;;;2.50;99.90;;;;;;3621500;39;20248;-73
2021/01/17 07:59:23;;;;;;;59.28;22.95;;;2.40;99.90;;;;;;3621966;39;20736;-73
2021/01/17 08:01:49;;;;;;;54.38;21.05;;;2.40;99.90;;;;;;3621934;39;20279;-73
2021/01/17 08:04:26;;;;;;;59.78;23.77;;;2.30;99.90;;;;;;3622295;39;20284;-73
2021/01/17 08:06:57;;;;;;;54.90;22.35;;;2.30;99.90;;;;;;3621505;39;20278;-73
2021/01/17 08:09:48;;;;;;;48.22;21.30;;;2.40;99.90;;;;;;3622497;39;20251;-73
2021/01/17 08:12:41;;;;;;;51.33;21.40;;;2.50;99.90;;;;;;3627454;39;20250;-73
2021/01/17 08:15:22;;;;;;;51.28;20.88;;;2.50;99.90;;;;;;3621836;39;20282;-73
2021/01/17 08:17:50;;;;;;;55.28;21.35;;;2.40;99.90;;;;;;3625718;39;20399;-73
2021/01/17 08:20:31;;;;;;;48.33;21.73;;;2.40;99.90;;;;;;3624786;39;20302;-73
2021/01/17 08:23:15;;;;;;;48.92;20.77;;;2.30;99.90;;;;;;3628796;39;20354;-73
2021/01/17 08:25:57;;;;;;;53.08;22.70;;;2.30;99.90;;;;;;3624128;39;20838;-73
2021/01/17 08:28:38;;;;;;;52.95;21.70;;;2.40;99.90;;;;;;3624297;39;20273;-73
2021/01/17 08:31:35;;;;;;;52.63;22.48;;;2.50;99.90;;;;;;3623591;39;20325;-73
2021/01/17 08:34:13;;;;;;;45.15;18.63;;;2.50;99.90;;;;;;3618061;39;20404;-73
2021/01/17 08:36:41;;;;;;;47.92;20.20;;;2.50;99.90;;;;;;3627057;39;20312;-73
2021/01/17 08:39:08;;;;;;;45.50;21.02;;;2.60;99.90;;;;;;3631527;39;20261;-73
2021/01/17 08:41:39;;;;;;;43.22;19.85;;;2.50;99.90;;;;;;3633831;39;20335;-73
2021/01/17 08:44:11;;;;;;;48.45;21.92;;;2.50;99.90;;;;;;3637324;31;20248;-73
2021/01/17 08:46:39;;;;;;;47.45;22.88;;;2.60;99.90;;;;;;3631857;39;20244;-73
2021/01/17 08:49:06;;;;;;;51.53;22.92;;;2.70;99.90;;;;;;3634526;39;20342;-73
2021/01/17 08:51:33;;;;;;;51.47;20.63;;;2.70;99.90;;;;;;3634769;39;20271;-73
2021/01/17 08:54:28;;;;;;;48.28;20.90;;;2.70;99.90;;;;;;3631391;39;20288;-73
2021/01/17 08:56:56;;;;;;;52.58;20.75;;;2.80;99.90;;;;;;3633395;31;20315;-73
2021/01/17 08:59:33;;;;;;;48.20;20.95;;;2.80;99.90;;;;;;3632160;39;20340;-73
2021/01/17 09:02:00;;;;;;;44.65;19.67;;;2.90;99.90;;;;;;3630732;39;20748;-73
2021/01/17 09:04:28;;;;;;;46.22;19.80;;;2.90;99.90;;;;;;3630916;39;20268;-73
2021/01/17 09:06:55;;;;;;;44.83;19.75;;;3.00;99.90;;;;;;3635129;39;20251;-73
2021/01/17 09:09:22;;;;;;;41.78;18.52;;;3.10;99.90;;;;;;3633536;39;20343;-73
2021/01/17 09:11:50;;;;;;;42.45;19.45;;;3.30;99.90;;;;;;3624630;39;20816;-73
2021/01/17 09:14:23;;;;;;;38.20;18.23;;;3.30;99.90;;;;;;3621216;39;20347;-73
2021/01/17 09:16:56;;;;;;;43.30;20.20;;;3.30;99.90;;;;;;3627009;39;20274;-73
2021/01/17 09:19:24;;;;;;;43.00;19.20;;;3.40;99.90;;;;;;3623123;39;20335;-73
2021/01/17 09:21:52;;;;;;;42.78;19.65;;;3.40;99.90;;;;;;3623433;39;20268;-73
2021/01/17 09:24:21;;;;;;;44.00;19.27;;;3.40;99.90;;;;;;3624797;39;20261;-73
2021/01/17 09:26:49;;;;;;;40.05;17.50;;;3.40;99.90;;;;;;3629904;31;20257;-74
2021/01/17 09:29:35;;;;;;;39.40;19.63;;;3.50;99.90;;;;;;3621184;39;20377;-74
2021/01/17 09:32:05;;;;;;;39.17;18.75;;;3.50;99.90;;;;;;3624697;39;20263;-74
2021/01/17 09:34:34;;;;;;;41.55;19.80;;;3.40;99.90;;;;;;3620721;31;20279;-74
2021/01/17 09:37:02;;;;;;;41.63;17.75;;;3.50;99.90;;;;;;3620254;39;20257;-73
2021/01/17 09:39:34;;;;;;;46.13;19.73;;;3.50;99.90;;;;;;3626219;39;20303;-73
2021/01/17 09:42:02;;;;;;;46.45;19.25;;;3.60;99.90;;;;;;3620778;39;20264;-74
2021/01/17 09:44:29;;;;;;;41.50;19.10;;;3.60;99.90;;;;;;3620253;39;20248;-75
2021/01/17 09:46:56;;;;;;;51.25;21.40;;;3.70;99.90;;;;;;3622799;32;20256;-75
2021/01/17 09:49:25;;;;;;;41.00;18.15;;;3.70;99.90;;;;;;3623373;39;20263;-74
2021/01/17 09:51:52;;;;;;;43.83;20.58;;;3.60;99.90;;;;;;3621585;39;20263;-75
2021/01/17 09:54:19;;;;;;;41.35;18.05;;;3.70;99.90;;;;;;3620148;39;20293;-76
2021/01/17 09:56:47;;;;;;;37.67;18.60;;;3.70;99.90;;;;;;3625069;39;20279;-76
2021/01/17 09:59:15;;;;;;;35.53;17.73;;;3.80;99.90;;;;;;3624437;39;20343;-76
2021/01/17 10:01:43;;;;;;;39.00;18.40;;;3.70;99.90;;;;;;3623026;39;20264;-76
2021/01/17 10:04:24;;;;;;;49.13;20.10;;;3.60;99.90;;;;;;3623431;39;20264;-76
2021/01/17 10:06:58;;;;;;;38.35;19.00;;;3.60;99.90;;;;;;3620039;39;20264;-75
2021/01/17 10:09:26;;;;;;;43.20;20.70;;;3.70;99.90;;;;;;3622263;39;20248;-74
2021/01/17 10:11:58;;;;;;;39.72;19.77;;;3.80;99.90;;;;;;3623276;39;20260;-75
2021/01/17 10:14:27;;;;;;;39.60;19.70;;;3.90;99.90;;;;;;3620793;39;20296;-75
2021/01/17 10:16:55;;;;;;;45.92;21.05;;;4.00;99.90;;;;;;3620274;39;20414;-75
2021/01/17 10:19:30;;;;;;;39.28;20.25;;;4.00;99.90;;;;;;3623451;39;20255;-75
2021/01/17 10:21:58;;;;;;;39.38;19.38;;;3.90;99.90;;;;;;3621853;39;20941;-74
2021/01/17 10:24:26;;;;;;;46.83;20.10;;;4.00;99.90;;;;;;3622527;39;20811;-75
2021/01/17 10:26:54;;;;;;;46.25;20.77;;;4.00;99.90;;;;;;3620565;39;20888;-75
2021/01/17 10:29:26;;;;;;;41.53;19.83;;;4.00;99.90;;;;;;3622181;39;20293;-75
2021/01/17 10:31:57;;;;;;;39.88;19.42;;;3.90;99.90;;;;;;3620099;39;20256;-75
2021/01/17 10:34:31;;;;;;;51.75;21.35;;;3.70;99.90;;;;;;3622220;39;20718;-75
2021/01/17 10:37:00;;;;;;;42.88;20.55;;;3.80;99.90;;;;;;3621017;39;20271;-75
2021/01/17 10:39:28;;;;;;;49.83;20.80;;;3.80;99.90;;;;;;3621581;39;20279;-75
2021/01/17 10:42:06;;;;;;;36.90;19.08;;;4.00;99.90;;;;;;3623315;39;20264;-75
2021/01/17 10:44:41;;;;;;;46.33;20.95;;;4.00;99.90;;;;;;3623262;39;20357;-75
2021/01/17 10:47:13;;;;;;;41.80;19.33;;;4.10;99.90;;;;;;3619512;39;20255;-75
2021/01/17 10:49:46;;;;;;;37.97;18.50;;;4.20;99.90;;;;;;3620354;39;20282;-75
2021/01/17 10:52:21;;;;;;;40.70;19.52;;;4.20;99.90;;;;;;3620260;39;20278;-75
2021/01/17 10:54:48;;;;;;;42.50;20.02;;;4.20;99.90;;;;;;3620207;39;20281;-75
2021/01/17 10:57:19;;;;;;;50.60;21.23;;;4.30;99.90;;;;;;3623679;39;20275;-74
2021/01/17 10:59:46;;;;;;;41.58;20.85;;;4.30;99.90;;;;;;3619836;39;20255;-73
2021/01/17 11:11:28;;;;;;;46.30;22.20;;;4.10;99.90;;;;;;3658253;31;20282;-76
2021/01/17 11:13:58;;;;;;;50.67;19.70;;;4.10;99.90;;;;;;3632492;39;20297;-76
2021/01/17 11:16:38;;;;;;;43.20;21.15;;;4.20;99.90;;;;;;3629161;39;20263;-75
2021/01/17 11:19:05;;;;;;;47.13;20.85;;;4.30;99.90;;;;;;3632023;39;20264;-74
2021/01/17 11:21:36;;;;;;;39.00;19.38;;;4.30;99.90;;;;;;3629548;39;21192;-75
2021/01/17 11:24:03;;;;;;;52.88;21.00;;;4.30;99.90;;;;;;3629160;39;20252;-76
2021/01/17 11:26:30;;;;;;;47.33;20.40;;;4.20;99.90;;;;;;3629476;39;20363;-75
2021/01/17 11:28:59;;;;;;;48.13;21.80;;;4.30;99.90;;;;;;3629182;39;20256;-75
2021/01/17 11:31:27;;;;;;;45.63;19.30;;;4.20;99.90;;;;;;3633215;39;20788;-75
2021/01/17 11:33:53;;;;;;;42.90;20.65;;;4.30;99.90;;;;;;3631847;39;20351;-74
2021/01/17 11:36:21;;;;;;;45.13;20.27;;;4.40;99.90;;;;;;3628647;39;20371;-73
2021/01/17 11:38:50;;;;;;;47.63;19.20;;;4.50;99.90;;;;;;3628437;39;20806;-73
2021/01/17 11:41:19;;;;;;;45.28;21.58;;;4.70;99.90;;;;;;3628676;39;20259;-73
2021/01/17 11:43:48;;;;;;;46.60;21.38;;;4.80;99.90;;;;;;3628121;39;20260;-73
2021/01/17 11:46:17;;;;;;;40.65;19.48;;;4.80;99.90;;;;;;3628474;39;20271;-73
2021/01/17 11:48:44;;;;;;;53.47;20.88;;;4.70;99.90;;;;;;3633527;31;20689;-74
2021/01/17 11:51:12;;;;;;;41.78;20.45;;;4.70;99.90;;;;;;3628966;39;20275;-73
2021/01/17 11:53:39;;;;;;;54.28;21.35;;;4.70;99.90;;;;;;3628616;39;20249;-73
2021/01/17 11:56:06;;;;;;;50.22;18.95;;;4.70;99.90;;;;;;3630515;39;20235;-73
2021/01/17 11:58:40;;;;;;;44.13;20.25;;;4.70;99.90;;;;;;3634831;39;20276;-73
2021/01/17 12:01:08;;;;;;;46.90;19.42;;;4.70;99.90;;;;;;3632991;39;20277;-73
2021/01/17 12:03:36;;;;;;;45.15;19.17;;;4.60;99.90;;;;;;3641115;31;20259;-73
2021/01/17 12:06:06;;;;;;;50.20;21.88;;;4.50;99.90;;;;;;3629039;39;20261;-73
2021/01/17 12:08:56;;;;;;;47.45;18.45;;;4.40;99.90;;;;;;3632131;39;20263;-73
2021/01/17 12:11:38;;;;;;;49.65;20.67;;;4.40;99.90;;;;;;3628372;39;20244;-73
2021/01/17 12:14:06;;;;;;;51.72;20.88;;;4.30;99.90;;;;;;3627665;39;20251;-73
2021/01/17 12:16:36;;;;;;;48.58;19.52;;;4.40;99.90;;;;;;3624164;39;20627;-74
2021/01/17 12:19:04;;;;;;;45.33;19.25;;;4.50;99.90;;;;;;3621759;39;20255;-73
2021/01/17 12:21:32;;;;;;;43.85;19.60;;;4.50;99.90;;;;;;3624716;39;20722;-73
2021/01/17 12:23:59;;;;;;;45.58;19.75;;;4.50;99.90;;;;;;3624037;39;20260;-74
2021/01/17 12:26:26;;;;;;;43.20;19.85;;;4.50;99.90;;;;;;3624408;39;20348;-73
2021/01/17 12:28:54;;;;;;;48.03;20.48;;;4.60;99.90;;;;;;3621601;39;20972;-73
2021/01/17 12:31:22;;;;;;;44.85;19.02;;;4.70;99.90;;;;;;3621142;39;20303;-73
2021/01/17 12:33:50;;;;;;;38.17;19.10;;;4.70;99.90;;;;;;3621828;39;20255;-73
2021/01/17 12:36:18;;;;;;;46.95;21.90;;;4.60;99.90;;;;;;3621445;39;20265;-73
2021/01/17 12:38:46;;;;;;;52.40;21.42;;;4.50;99.90;;;;;;3621186;39;20353;-73
2021/01/17 12:41:15;;;;;;;42.05;20.02;;;4.40;99.90;;;;;;3621028;39;20295;-73
2021/01/17 12:43:42;;;;;;;34.83;18.38;;;4.40;99.90;;;;;;3621976;39;20239;-73
2021/01/17 12:46:10;;;;;;;42.63;21.05;;;4.50;99.90;;;;;;3621222;39;20355;-74
2021/01/17 12:48:38;;;;;;;47.03;21.05;;;4.50;99.90;;;;;;3624671;39;20279;-73
2021/01/17 12:51:06;;;;;;;40.22;20.20;;;4.60;99.90;;;;;;3621511;39;20262;-73
2021/01/17 12:53:33;;;;;;;51.83;22.77;;;4.60;99.90;;;;;;3622561;39;20260;-74
2021/01/17 12:55:59;;;;;;;46.17;21.23;;;4.50;99.90;;;;;;3620849;39;20366;-74
2021/01/17 12:58:26;;;;;;;48.50;22.17;;;4.50;99.90;;;;;;3621718;39;20319;-74